Maryknoll, NY (10545)

7:50 AM EDT on June 03, 2015 (GMT -0400)
North Ossining | | Change Station
CLOSE
Current Station
Personal Weather Station
Location: Ossining, NY
Elevation: 361 ft
Nearby Weather Stations

Elev 361 ft 41.18 °N, 73.86 °W | Updated 3 seconds ago

Overcast
Overcast
52.1 °F
Feels Like 52.1 °F
N
0.0
Wind Variable Wind from North
Gusts 0.0 mph

Today
High -- | Low -- °F
--% Chance of Precip.
Yesterday
High -- | Low -- °F
Precip. -- in
5:24 AM 8:23 PM
Full, 99% visible
Pressure 30.22 in
Visibility 9.0 miles
Clouds Mostly Cloudy 1900 ft
Dew Point 52 °F
Humidity 99%
Rainfall 0.00 in
Snow Depth Not available.
UV 1 out of 12
Pollen 7.50 out of 12
Air Quality Not available.
Flu Activity Sporadic
SPECI KHPN 031103Z 35007KT 9SM BKN019 11/09 A3022 RMK AO2

More Conditions Fewer Conditions

Pressure 30.22 in
Visibility 9.0 miles
Clouds Mostly Cloudy 1900 ft
Dew Point 52 °F
Humidity 99%
Rainfall 0.00 in
Snow Depth Not available.
UV 1 out of 12
Pollen 7.50 out of 12
Air Quality Not available.
Flu Activity Sporadic
SPECI KHPN 031103Z 35007KT 9SM BKN019 11/09 A3022 RMK AO2

More Conditions Fewer Conditions

10-Day Weather Forecast

×

Almanac

Astronomy

Jun. 03, 2015 Rise Set
Actual Time
Civil Twilight
Nautical Twilight
Astronomical Twilight
Moon
Length of Visible Light
Length of Day
Tomorrow will be .
, % of the Moon is Illuminated

Today's Extremes

State Highs State Lows

Community

WunderPhotos

Upload Photos

1,826,205 photos uploaded!

WunderBlogs® & News

Nearby

Air Quality

  Air Quality AQ Index Pollutant
Not available.

Snow Depth

Station Depth Elevation

Earthquake Activity

City Distance Mag. Time & Date
Minimum magnitude displayed is 2.5.

Coastal Water Temperatures

Place Temperature

Stations

Nearby Weather Stations

Station Location Temp. Windchill Dew Point Humidity Wind Precip. Elev Updated Type